Time;durP1;ratioP1;P1;durP2;ratioP2;P2;SDS_P1;SDS_P2;PMS_P1;PMS_P2;Temp;Humidity;BMP_temperature;BMP_pressure;BME280_temperature;BME280_humidity;BME280_pressure;Samples;Min_cycle;Max_cycle;Signal;HPM_P1;HPM_P2
2020/12/03 00:00:30;;;;;;;42.67;18.33;;;-5.70;87.50;;;;;;5063012;28;20097;-88
2020/12/03 00:03:00;;;;;;;35.97;17.50;;;-5.70;87.60;;;;;;5072411;28;20036;-87
2020/12/03 00:05:26;;;;;;;37.78;17.45;;;-5.80;87.60;;;;;;5089900;28;20036;-88
2020/12/03 00:07:54;;;;;;;35.27;17.60;;;-5.70;87.80;;;;;;5091538;28;20035;-88
2020/12/03 00:10:20;;;;;;;;;;;-5.70;87.70;;;;;;5052256;28;20068;-90
2020/12/03 00:13:08;;;;;;;34.55;17.85;;;-5.80;87.50;;;;;;5052561;28;19934;-89
2020/12/03 00:15:34;;;;;;;36.03;18.33;;;-5.80;87.50;;;;;;5052891;28;20107;-89
2020/12/03 00:17:59;;;;;;;24.95;14.68;;;-5.80;87.60;;;;;;5058832;28;20045;-88
2020/12/03 00:20:25;;;;;;;32.20;17.33;;;-5.80;87.60;;;;;;5043693;28;20158;-89
2020/12/03 00:22:51;;;;;;;35.83;16.88;;;-5.80;87.80;;;;;;5042537;28;20017;-88
2020/12/03 00:25:17;;;;;;;34.25;15.82;;;-5.80;87.80;;;;;;5031170;28;20037;-89
2020/12/03 00:27:52;;;;;;;31.95;15.20;;;-5.80;87.80;;;;;;5038832;28;20033;-89
2020/12/03 00:30:18;;;;;;;35.75;16.00;;;-5.80;87.70;;;;;;5037717;28;20040;-88
2020/12/03 00:32:45;;;;;;;34.15;16.38;;;-5.80;87.60;;;;;;5049821;28;20434;-88
2020/12/03 00:35:11;;;;;;;33.45;15.88;;;-5.80;87.60;;;;;;5054685;28;20037;-88
2020/12/03 00:37:37;;;;;;;25.98;14.82;;;-5.90;87.50;;;;;;5017051;28;20530;-86
2020/12/03 00:40:04;;;;;;;35.33;16.63;;;-5.90;87.60;;;;;;5039411;28;20038;-87
2020/12/03 00:42:29;;;;;;;31.55;15.95;;;-5.90;87.60;;;;;;5073396;28;20099;-89
2020/12/03 00:44:55;;;;;;;29.33;15.20;;;-5.90;87.60;;;;;;5080467;28;20067;-88
2020/12/03 00:47:22;;;;;;;33.38;15.27;;;-5.90;87.70;;;;;;5077252;28;20020;-90
2020/12/03 00:49:47;;;;;;;38.03;17.08;;;-5.90;87.60;;;;;;5083501;28;20023;-86
2020/12/03 00:52:13;;;;;;;39.28;17.02;;;-5.90;87.50;;;;;;5074838;28;20017;-87
2020/12/03 00:54:39;;;;;;;38.35;19.33;;;-5.90;87.70;;;;;;5087736;28;20042;-86
2020/12/03 00:57:07;;;;;;;29.33;15.90;;;-5.90;87.60;;;;;;5090197;28;20032;-87
2020/12/03 00:59:36;;;;;;;27.00;14.05;;;-6.00;87.60;;;;;;5062932;28;20540;-86
2020/12/03 01:02:07;;;;;;;31.05;16.55;;;-6.00;87.60;;;;;;5080491;28;20029;-87
2020/12/03 01:04:33;;;;;;;27.25;14.68;;;-6.00;87.70;;;;;;5062094;28;20023;-87
2020/12/03 01:06:59;;;;;;;34.08;16.42;;;-6.00;87.60;;;;;;5076693;28;20050;-87
2020/12/03 01:09:25;;;;;;;29.35;15.95;;;-6.00;87.70;;;;;;5075564;28;20115;-86
2020/12/03 01:11:51;;;;;;;28.05;17.35;;;-6.00;87.80;;;;;;5058432;28;20020;-88
2020/12/03 01:14:17;;;;;;;28.20;15.25;;;-5.90;87.90;;;;;;5076292;28;20115;-86
2020/12/03 01:16:44;;;;;;;30.85;15.15;;;-5.90;87.80;;;;;;5075121;28;20401;-87
2020/12/03 01:19:10;;;;;;;27.00;14.25;;;-5.90;87.70;;;;;;5091421;28;20100;-86
2020/12/03 01:21:35;;;;;;;29.98;15.27;;;-5.90;87.60;;;;;;5074580;28;20079;-87
2020/12/03 01:24:01;;;;;;;34.97;16.48;;;-6.00;87.60;;;;;;5084381;28;20066;-87
2020/12/03 01:26:27;;;;;;;32.72;17.02;;;-6.00;87.60;;;;;;5064702;28;20470;-87
2020/12/03 01:28:53;;;;;;;30.45;16.70;;;-6.00;88.10;;;;;;5083874;28;20020;-87
2020/12/03 01:31:18;;;;;;;30.58;17.75;;;-6.10;87.50;;;;;;5076543;28;20017;-87
2020/12/03 01:33:44;;;;;;;47.47;21.33;;;-6.10;87.60;;;;;;5070105;28;20016;-84
2020/12/03 01:36:12;;;;;;;34.85;15.48;;;-6.10;87.70;;;;;;5073912;28;20008;-87
2020/12/03 01:38:38;;;;;;;35.03;15.80;;;-6.00;87.70;;;;;;5073370;28;20123;-86
2020/12/03 01:41:04;;;;;;;34.72;16.67;;;-6.10;87.50;;;;;;5073719;28;20036;-85
2020/12/03 01:43:30;;;;;;;35.20;15.18;;;-6.10;87.60;;;;;;5073471;28;20016;-86
2020/12/03 01:45:58;;;;;;;31.95;16.92;;;-6.20;87.60;;;;;;5058375;28;20060;-86
2020/12/03 01:48:49;;;;;;;26.02;14.77;;;-6.10;87.60;;;;;;5074099;28;20048;-86
2020/12/03 01:51:38;;;;;;;30.27;15.10;;;-6.10;87.50;;;;;;5071046;28;20043;-85
2020/12/03 01:54:12;;;;;;;39.40;15.27;;;-6.20;87.40;;;;;;5026826;28;20422;-87
2020/12/03 01:57:04;;;;;;;35.58;16.98;;;-6.20;87.50;;;;;;5036732;28;20351;-87
2020/12/03 01:59:39;;;;;;;36.33;16.42;;;-6.20;87.80;;;;;;5011206;28;20051;-87
2020/12/03 02:02:09;;;;;;;30.95;14.75;;;-6.20;87.60;;;;;;5006963;28;20033;-85
2020/12/03 02:04:36;;;;;;;30.45;15.52;;;-6.20;87.50;;;;;;5007390;28;20131;-86
2020/12/03 02:07:10;;;;;;;32.88;17.70;;;-6.20;87.50;;;;;;5054926;28;20025;-85
2020/12/03 02:09:36;;;;;;;25.92;14.82;;;-6.20;87.50;;;;;;5041953;28;20145;-86
2020/12/03 02:12:03;;;;;;;33.50;14.15;;;-6.20;87.50;;;;;;5036823;28;20433;-87
2020/12/03 02:14:29;;;;;;;33.70;16.40;;;-6.20;87.40;;;;;;5054866;28;20037;-87
2020/12/03 02:16:55;;;;;;;34.17;16.50;;;-6.20;87.50;;;;;;5039940;28;20118;-86
2020/12/03 02:19:29;;;;;;;34.25;15.65;;;-6.20;87.40;;;;;;5044846;28;20104;-86
2020/12/03 02:22:04;;;;;;;32.40;16.85;;;-6.10;87.50;;;;;;5051021;28;20038;-88
2020/12/03 02:24:35;;;;;;;34.58;15.13;;;-6.10;87.40;;;;;;5036124;28;20037;-86
2020/12/03 02:27:02;;;;;;;25.63;14.32;;;-6.20;87.30;;;;;;5038397;28;20041;-87
2020/12/03 02:29:28;;;;;;;23.35;12.95;;;-6.20;87.30;;;;;;5043633;28;20026;-87
2020/12/03 02:31:54;;;;;;;34.15;15.82;;;-6.20;87.30;;;;;;5087204;28;20029;-86
2020/12/03 02:34:21;;;;;;;22.45;12.50;;;-6.20;87.50;;;;;;5088739;28;20025;-87
2020/12/03 02:36:55;;;;;;;24.53;13.23;;;-6.20;87.60;;;;;;5092348;28;20024;-86
2020/12/03 02:39:22;;;;;;;26.92;13.43;;;-6.20;87.60;;;;;;5093668;28;20272;-88
2020/12/03 02:41:48;;;;;;;25.42;13.65;;;-6.20;87.60;;;;;;5077063;28;20060;-88
2020/12/03 02:44:15;;;;;;;28.08;14.73;;;-6.20;87.50;;;;;;5078345;28;20024;-87
2020/12/03 02:46:40;;;;;;;27.40;14.65;;;-6.20;87.50;;;;;;5077610;28;20016;-88
2020/12/03 02:49:07;;;;;;;28.42;14.10;;;-6.20;87.60;;;;;;5073808;28;20017;-88
2020/12/03 02:51:33;;;;;;;27.55;14.93;;;-6.20;87.50;;;;;;5074786;28;20031;-84
2020/12/03 02:53:59;;;;;;;36.67;15.35;;;-6.20;87.60;;;;;;5095020;28;20021;-88
2020/12/03 02:56:25;;;;;;;23.83;13.25;;;-6.20;87.50;;;;;;5085520;28;20064;-85
2020/12/03 02:58:50;;;;;;;34.63;16.40;;;-6.20;87.60;;;;;;5077957;28;20051;-88
2020/12/03 03:01:16;;;;;;;28.88;15.05;;;-6.10;87.70;;;;;;5059262;28;20136;-88
2020/12/03 03:03:42;;;;;;;30.88;17.73;;;-6.10;87.70;;;;;;5070661;28;20067;-88
2020/12/03 03:06:08;;;;;;;30.77;15.07;;;-6.00;87.60;;;;;;5076572;28;20489;-87
2020/12/03 03:08:33;;;;;;;26.02;15.05;;;-6.00;87.60;;;;;;5068305;28;20013;-86
2020/12/03 03:10:59;;;;;;;29.50;15.05;;;-5.90;87.60;;;;;;5069747;28;20496;-87
2020/12/03 03:13:25;;;;;;;26.17;15.73;;;-5.90;87.30;;;;;;5079276;28;20482;-86
2020/12/03 03:15:51;;;;;;;30.85;15.70;;;-5.90;87.10;;;;;;5080991;28;20369;-87
2020/12/03 03:18:17;;;;;;;31.92;15.38;;;-5.80;87.00;;;;;;5057354;28;20048;-87
2020/12/03 03:20:42;;;;;;;25.83;13.93;;;-5.80;86.70;;;;;;5066085;28;20046;-88
2020/12/03 03:23:08;;;;;;;34.03;14.27;;;-5.90;86.60;;;;;;5073466;28;20037;-87
2020/12/03 03:25:34;;;;;;;25.10;14.95;;;-5.90;86.60;;;;;;5057839;28;20020;-87
2020/12/03 03:28:00;;;;;;;31.33;14.32;;;-5.90;86.50;;;;;;5079531;28;20031;-87
2020/12/03 03:30:26;;;;;;;27.45;14.18;;;-6.00;86.40;;;;;;5089308;28;20001;-85
2020/12/03 03:32:51;;;;;;;26.20;14.82;;;-6.00;86.40;;;;;;5091166;28;20120;-87
2020/12/03 03:35:19;;;;;;;31.88;13.85;;;-6.00;86.50;;;;;;5065889;28;20021;-87
2020/12/03 03:37:46;;;;;;;27.45;16.52;;;-6.00;86.40;;;;;;5076904;28;20032;-88
2020/12/03 03:40:12;;;;;;;22.15;13.38;;;-6.00;86.40;;;;;;5070319;28;20028;-88
2020/12/03 03:42:38;;;;;;;27.52;14.18;;;-6.00;86.30;;;;;;5065353;28;20027;-88
2020/12/03 03:45:08;;;;;;;26.17;14.55;;;-6.00;86.10;;;;;;5070865;28;20021;-88
2020/12/03 03:47:34;;;;;;;31.90;15.43;;;-6.10;86.10;;;;;;5078628;28;20017;-87
2020/12/03 03:49:59;;;;;;;31.05;13.57;;;-6.10;86.10;;;;;;5077846;28;20031;-88
2020/12/03 03:52:25;;;;;;;29.48;13.27;;;-6.10;86.10;;;;;;5069595;28;20021;-87
2020/12/03 03:54:51;;;;;;;28.63;15.50;;;-6.10;86.10;;;;;;5073649;28;20393;-88
2020/12/03 03:57:17;;;;;;;28.13;14.77;;;-6.00;86.10;;;;;;5078460;28;20067;-87
2020/12/03 03:59:48;;;;;;;29.73;14.43;;;-6.00;85.90;;;;;;5076415;28;20016;-88
2020/12/03 04:02:18;;;;;;;30.92;14.60;;;-6.00;85.80;;;;;;5058165;28;20089;-88
2020/12/03 04:04:45;;;;;;;34.70;17.17;;;-6.00;85.80;;;;;;5076814;28;20060;-88
2020/12/03 04:07:11;;;;;;;26.07;13.33;;;-6.00;85.90;;;;;;5081639;28;20107;-89
2020/12/03 04:09:37;;;;;;;25.38;13.10;;;-5.90;85.70;;;;;;5077594;28;20044;-87
2020/12/03 04:12:03;;;;;;;32.40;15.55;;;-5.90;85.70;;;;;;5062158;28;20028;-87
2020/12/03 04:14:30;;;;;;;24.27;13.85;;;-5.90;85.50;;;;;;5076992;28;20072;-87
2020/12/03 04:16:56;;;;;;;;;;;-5.80;85.50;;;;;;5079956;28;20028;-86
2020/12/03 04:19:23;;;;;;;29.83;14.90;;;-5.80;85.50;;;;;;5070945;28;19938;-89
2020/12/03 04:21:49;;;;;;;32.35;15.65;;;-5.80;85.20;;;;;;5085605;28;20024;-87
2020/12/03 04:24:15;;;;;;;24.33;13.13;;;-5.90;85.00;;;;;;5084099;28;20073;-88
2020/12/03 04:26:42;;;;;;;31.10;15.48;;;-5.80;85.70;;;;;;5071837;28;20431;-89
2020/12/03 04:29:08;;;;;;;22.30;13.90;;;-5.90;85.10;;;;;;5088839;28;20013;-88
2020/12/03 04:31:34;;;;;;;27.50;12.48;;;-5.90;85.20;;;;;;5085990;28;20067;-88
2020/12/03 04:34:00;;;;;;;27.33;14.23;;;-5.80;85.20;;;;;;5060419;28;20020;-90
2020/12/03 04:36:26;;;;;;;31.60;15.52;;;-5.80;85.10;;;;;;5043074;28;20067;-89
2020/12/03 04:38:52;;;;;;;28.13;15.35;;;-5.80;85.00;;;;;;5076319;28;20021;-89
2020/12/03 04:41:19;;;;;;;24.38;13.30;;;-5.80;85.10;;;;;;5075784;28;20043;-88
2020/12/03 04:43:52;;;;;;;26.63;14.75;;;-5.70;84.90;;;;;;5077282;28;20249;-88
2020/12/03 04:46:27;;;;;;;28.58;14.70;;;-5.70;84.80;;;;;;5083608;28;20103;-88
2020/12/03 04:49:04;;;;;;;28.38;13.35;;;-5.70;84.80;;;;;;5098221;28;20024;-88
2020/12/03 04:51:55;;;;;;;24.05;13.25;;;-5.60;84.60;;;;;;5068308;28;20017;-89
2020/12/03 04:54:25;;;;;;;28.52;13.63;;;-5.60;84.60;;;;;;5072057;28;20013;-89
2020/12/03 04:57:02;;;;;;;24.48;11.13;;;-5.50;84.50;;;;;;5075512;28;20031;-88
2020/12/03 04:59:42;;;;;;;34.20;17.67;;;-5.50;84.10;;;;;;5062728;28;20111;-86
2020/12/03 05:02:29;;;;;;;27.30;13.60;;;-5.60;84.10;;;;;;5089657;28;20118;-89
2020/12/03 05:05:14;;;;;;;32.42;16.77;;;-5.60;84.10;;;;;;5091328;28;20024;-90
2020/12/03 05:07:44;;;;;;;26.52;13.30;;;-5.50;84.30;;;;;;5087702;28;20043;-89
2020/12/03 05:10:45;;;;;;;27.42;16.92;;;-5.50;84.00;;;;;;5092590;28;20047;-87
2020/12/03 05:13:17;;;;;;;29.40;13.38;;;-5.50;83.90;;;;;;5095152;28;20037;-85
2020/12/03 05:15:44;;;;;;;28.58;14.43;;;-5.50;83.80;;;;;;5080754;28;20011;-89
2020/12/03 05:18:43;;;;;;;41.58;15.40;;;-5.60;83.50;;;;;;5072563;28;20032;-87
2020/12/03 05:21:14;;;;;;;28.60;14.02;;;-5.60;83.60;;;;;;5077860;28;20030;-88
2020/12/03 05:23:40;;;;;;;22.75;12.82;;;-5.70;83.70;;;;;;5074488;28;20024;-89
2020/12/03 05:26:23;;;;;;;25.80;13.45;;;-5.70;83.70;;;;;;5077117;28;20017;-89
2020/12/03 05:28:59;;;;;;;23.95;13.40;;;-5.70;83.70;;;;;;5079945;28;20036;-90
2020/12/03 05:31:30;;;;;;;32.45;16.85;;;-5.80;83.70;;;;;;5070049;28;20074;-89
2020/12/03 05:34:00;;;;;;;23.98;13.30;;;-5.70;83.90;;;;;;5076675;28;20032;-90
2020/12/03 05:36:32;;;;;;;28.40;15.27;;;-5.70;83.90;;;;;;5073618;28;20085;-90
2020/12/03 05:39:01;;;;;;;24.35;14.05;;;-5.70;83.90;;;;;;5064340;28;20039;-87
2020/12/03 05:41:32;;;;;;;29.25;16.90;;;-5.70;83.80;;;;;;5093809;28;20035;-85
2020/12/03 05:43:57;;;;;;;26.67;14.20;;;-5.70;83.80;;;;;;5092252;28;20084;-85
2020/12/03 05:46:24;;;;;;;25.50;12.77;;;-5.70;83.80;;;;;;5086201;28;20028;-89
2020/12/03 05:48:59;;;;;;;34.40;14.75;;;-5.70;83.90;;;;;;5081108;28;20031;-87
2020/12/03 05:51:31;;;;;;;29.02;15.52;;;-5.70;84.00;;;;;;5078909;28;20520;-88
2020/12/03 05:54:04;;;;;;;25.35;14.20;;;-5.70;84.00;;;;;;5086159;28;20036;-88
2020/12/03 05:56:31;;;;;;;27.05;13.02;;;-5.60;84.60;;;;;;5077690;28;20047;-88
2020/12/03 05:59:19;;;;;;;26.50;15.10;;;-5.60;84.00;;;;;;5059369;28;20055;-89
2020/12/03 06:02:03;;;;;;;23.45;13.07;;;-5.50;83.80;;;;;;5064888;28;20039;-88
2020/12/03 06:04:44;;;;;;;29.25;12.63;;;-5.50;83.50;;;;;;5072253;28;20035;-92
2020/12/03 06:07:10;;;;;;;30.48;14.02;;;-5.60;83.30;;;;;;5087246;28;20036;-87
2020/12/03 06:09:56;;;;;;;29.30;15.27;;;-5.70;83.30;;;;;;5065082;28;20020;-87
2020/12/03 06:13:00;;;;;;;31.48;17.10;;;-5.70;83.30;;;;;;5050281;28;20021;-86
2020/12/03 06:15:38;;;;;;;29.40;14.43;;;-5.70;83.50;;;;;;5076033;28;20101;-88
2020/12/03 06:18:10;;;;;;;29.48;14.45;;;-5.70;83.20;;;;;;5075571;28;20052;-89
2020/12/03 06:20:44;;;;;;;26.50;13.18;;;-5.80;83.20;;;;;;5076481;28;20036;-89
2020/12/03 06:23:29;;;;;;;20.27;12.95;;;-5.90;83.30;;;;;;5079136;28;20426;-89
2020/12/03 06:26:21;;;;;;;25.17;13.40;;;-5.90;83.30;;;;;;5077399;28;20033;-88
2020/12/03 06:28:55;;;;;;;28.52;12.85;;;-6.00;83.60;;;;;;5078020;28;20104;-87
2020/12/03 06:31:44;;;;;;;29.60;14.57;;;-5.90;83.50;;;;;;5079695;28;20031;-88
2020/12/03 06:34:40;;;;;;;30.02;13.55;;;-5.80;83.30;;;;;;5069798;28;20016;-88
2020/12/03 06:37:22;;;;;;;30.27;14.73;;;-5.80;83.20;;;;;;5075143;28;20025;-89
2020/12/03 06:40:10;;;;;;;23.67;11.88;;;-5.90;82.90;;;;;;5077880;28;20021;-88
2020/12/03 06:42:49;;;;;;;25.27;14.70;;;-5.80;83.10;;;;;;5075809;28;20124;-90
2020/12/03 06:45:24;;;;;;;33.10;12.75;;;-5.80;83.30;;;;;;5076334;28;20446;-88
2020/12/03 06:48:19;;;;;;;27.80;13.50;;;-5.60;83.30;;;;;;5073399;28;20020;-89
2020/12/03 06:51:09;;;;;;;25.20;14.23;;;-5.50;82.90;;;;;;5074801;28;20076;-89
2020/12/03 06:53:55;;;;;;;35.47;14.98;;;-5.30;82.30;;;;;;5073429;28;20394;-89
2020/12/03 06:56:48;;;;;;;29.65;14.50;;;-5.20;82.10;;;;;;5063255;28;20036;-89
2020/12/03 06:59:46;;;;;;;23.60;13.93;;;-5.10;81.60;;;;;;5065716;28;20108;-90
2020/12/03 07:02:33;;;;;;;24.00;13.13;;;-5.00;81.50;;;;;;5073060;28;20037;-92
2020/12/03 07:05:35;;;;;;;22.33;12.98;;;-5.00;80.90;;;;;;5044451;28;20453;-88
2020/12/03 07:08:04;;;;;;;28.40;14.95;;;-5.20;80.30;;;;;;5043015;28;20128;-91
2020/12/03 07:11:17;;;;;;;34.17;16.85;;;-5.30;80.30;;;;;;5041318;28;20039;-90
2020/12/03 07:14:13;;;;;;;24.90;15.30;;;-5.30;80.70;;;;;;4968971;28;20042;-92
2020/12/03 07:16:51;;;;;;;29.42;14.13;;;-5.30;80.70;;;;;;4972169;28;20047;-91
2020/12/03 07:19:44;;;;;;;27.33;12.65;;;-5.20;80.70;;;;;;4984694;28;20061;-90
2020/12/03 07:22:19;;;;;;;23.77;14.57;;;-5.10;80.70;;;;;;4993474;28;20042;-92
2020/12/03 07:24:47;;;;;;;23.52;12.55;;;-5.00;80.30;;;;;;4976387;28;20054;-91
2020/12/03 07:27:52;;;;;;;27.17;14.32;;;-5.00;80.30;;;;;;4977488;28;20010;-89
2020/12/03 07:30:56;;;;;;;32.15;15.85;;;-4.90;80.30;;;;;;4938790;29;20040;-92
2020/12/03 07:33:22;;;;;;;25.75;12.25;;;-4.90;80.10;;;;;;4920715;29;20040;-91
2020/12/03 07:36:18;;;;;;;27.95;15.32;;;-4.90;79.90;;;;;;4935053;29;20027;-91
2020/12/03 07:39:17;;;;;;;26.98;14.88;;;-5.00;79.40;;;;;;4926089;29;20120;-87
2020/12/03 07:41:55;;;;;;;29.13;14.18;;;-5.10;79.90;;;;;;4930340;29;20055;-90
2020/12/03 07:44:44;;;;;;;29.08;14.40;;;-5.00;80.10;;;;;;4950421;29;20544;-92
2020/12/03 07:47:35;;;;;;;36.25;15.32;;;-4.90;80.20;;;;;;4927352;29;20035;-89
2020/12/03 07:50:27;;;;;;;29.83;13.85;;;-4.90;80.00;;;;;;4964352;28;20452;-82
2020/12/03 07:53:14;;;;;;;31.98;14.35;;;-5.00;79.80;;;;;;4982998;28;20034;-82
2020/12/03 07:55:41;;;;;;;34.50;15.13;;;-5.00;80.10;;;;;;4982646;28;20035;-86
2020/12/03 07:58:37;;;;;;;22.30;12.30;;;-4.90;80.10;;;;;;4982430;28;20042;-93
2020/12/03 08:01:12;;;;;;;25.73;13.70;;;-4.80;80.10;;;;;;4980554;28;20070;-85
2020/12/03 08:03:46;;;;;;;23.00;13.23;;;-4.80;79.30;;;;;;4994838;28;20039;-87
2020/12/03 08:06:17;;;;;;;37.42;17.05;;;-5.00;79.60;;;;;;5022945;28;20044;-83
2020/12/03 08:08:50;;;;;;;28.05;14.88;;;-4.90;80.20;;;;;;5070135;28;20103;-82
2020/12/03 08:11:57;;;;;;;30.52;18.00;;;-4.90;79.90;;;;;;5082341;28;20103;-91
2020/12/03 08:14:34;;;;;;;34.33;17.48;;;-4.90;79.90;;;;;;5050237;28;20024;-84
2020/12/03 08:17:02;;;;;;;30.90;15.00;;;-4.80;79.80;;;;;;5061881;28;20024;-84
2020/12/03 08:19:32;;;;;;;30.80;15.52;;;-4.80;79.70;;;;;;5081937;28;20526;-84
2020/12/03 08:21:59;;;;;;;31.48;13.52;;;-4.80;79.70;;;;;;5065041;28;20035;-85
2020/12/03 08:24:29;;;;;;;38.00;17.17;;;-4.80;79.80;;;;;;5075234;28;20499;-84
2020/12/03 08:27:17;;;;;;;27.33;15.02;;;-4.80;80.20;;;;;;5074228;28;20261;-84
2020/12/03 08:29:43;;;;;;;29.05;14.02;;;-4.70;80.20;;;;;;5070285;28;20024;-83
2020/12/03 08:32:08;;;;;;;28.73;14.52;;;-4.70;79.80;;;;;;5075165;28;20021;-84
2020/12/03 08:34:35;;;;;;;38.25;17.38;;;-4.80;79.60;;;;;;5074951;28;20025;-86
2020/12/03 08:37:08;;;;;;;30.73;13.38;;;-4.80;79.70;;;;;;5077083;28;20024;-85
2020/12/03 08:39:36;;;;;;;28.88;15.73;;;-4.60;80.10;;;;;;5083656;28;20088;-88
2020/12/03 08:42:05;;;;;;;33.83;15.90;;;-4.40;80.20;;;;;;5082650;28;20058;-85
2020/12/03 08:44:35;;;;;;;30.42;15.27;;;-4.40;79.70;;;;;;5077293;28;20024;-87
2020/12/03 08:47:11;;;;;;;32.80;15.27;;;-4.40;79.20;;;;;;5077136;28;20020;-85
2020/12/03 08:49:44;;;;;;;26.80;14.32;;;-4.30;79.20;;;;;;5081205;28;20021;-85
2020/12/03 08:52:11;;;;;;;33.45;15.02;;;-4.30;79.40;;;;;;5079568;28;20016;-86
2020/12/03 08:54:37;;;;;;;32.63;14.77;;;-4.20;79.40;;;;;;5065572;28;20409;-86
2020/12/03 08:57:09;;;;;;;28.08;15.55;;;-4.10;79.60;;;;;;5080157;28;20024;-85
2020/12/03 08:59:42;;;;;;;33.90;16.95;;;-4.00;79.40;;;;;;5077051;28;20028;-86
2020/12/03 09:02:10;;;;;;;29.92;15.38;;;-3.90;79.10;;;;;;5079962;28;20035;-87
2020/12/03 09:04:42;;;;;;;31.63;15.57;;;-3.90;78.50;;;;;;5054275;28;20412;-86
2020/12/03 09:07:14;;;;;;;29.17;14.85;;;-4.00;78.70;;;;;;5064026;28;20020;-87
2020/12/03 09:09:43;;;;;;;34.17;15.75;;;-4.00;79.00;;;;;;5076074;28;20020;-90
2020/12/03 09:12:12;;;;;;;26.35;15.45;;;-3.90;79.30;;;;;;5082934;28;20039;-91
2020/12/03 09:14:42;;;;;;;30.65;12.82;;;-3.80;79.10;;;;;;5064504;28;20029;-87
2020/12/03 09:17:14;;;;;;;28.27;14.25;;;-3.70;78.90;;;;;;5084319;28;20008;-89
2020/12/03 09:19:40;;;;;;;24.20;13.70;;;-3.70;78.60;;;;;;5073356;28;20055;-86
2020/12/03 09:22:10;;;;;;;25.80;13.15;;;-3.70;78.40;;;;;;5095733;28;20040;-89
2020/12/03 09:24:38;;;;;;;30.88;13.90;;;-3.70;78.50;;;;;;5052621;28;20075;-92
2020/12/03 09:27:06;;;;;;;30.48;13.77;;;-3.70;78.50;;;;;;5053828;28;20486;-85
2020/12/03 09:29:35;;;;;;;26.55;14.35;;;-3.60;78.30;;;;;;5066258;28;20024;-87
2020/12/03 09:32:12;;;;;;;32.05;16.00;;;-3.50;78.00;;;;;;5063463;28;20008;-86
2020/12/03 09:34:39;;;;;;;;;;;-3.40;77.60;;;;;;5067807;28;20074;-85
2020/12/03 09:37:06;;;;;;;21.65;12.93;;;-3.40;77.80;;;;;;5061406;28;19910;-86
2020/12/03 09:39:34;;;;;;;35.70;14.30;;;-3.50;77.70;;;;;;5045553;28;20017;-87
2020/12/03 09:42:02;;;;;;;27.25;13.75;;;-3.50;77.60;;;;;;5070384;28;20094;-87
2020/12/03 09:44:34;;;;;;;34.40;13.77;;;-3.60;77.60;;;;;;5069685;28;20017;-85
2020/12/03 09:47:19;;;;;;;28.10;13.77;;;-3.60;77.80;;;;;;5073785;28;20016;-86
2020/12/03 09:49:46;;;;;;;33.90;15.38;;;-3.70;77.60;;;;;;5074646;28;20056;-90
2020/12/03 09:52:12;;;;;;;25.73;14.65;;;-3.60;78.10;;;;;;5056408;28;20124;-86
2020/12/03 09:54:39;;;;;;;24.33;13.13;;;-3.50;78.20;;;;;;5064513;28;20024;-85
2020/12/03 09:57:08;;;;;;;40.72;14.50;;;-3.40;78.60;;;;;;5056428;28;20032;-87
2020/12/03 09:59:36;;;;;;;23.70;14.00;;;-3.40;78.00;;;;;;5068914;28;20085;-87
2020/12/03 10:02:12;;;;;;;23.05;13.80;;;-3.30;77.70;;;;;;5076482;28;20128;-88
2020/12/03 10:04:44;;;;;;;27.40;16.55;;;-3.20;77.60;;;;;;5074569;28;20104;-84
2020/12/03 10:07:43;;;;;;;26.13;14.02;;;-3.30;77.30;;;;;;5076110;28;20028;-87
2020/12/03 10:10:34;;;;;;;32.75;13.93;;;-3.40;77.40;;;;;;5080593;28;20066;-85
2020/12/03 10:13:05;;;;;;;24.95;14.07;;;-3.40;77.70;;;;;;5070789;28;20142;-86
2020/12/03 10:16:05;;;;;;;23.98;13.98;;;-3.40;77.80;;;;;;5077359;28;20035;-85
2020/12/03 10:18:46;;;;;;;28.27;14.63;;;-3.40;77.80;;;;;;5074291;28;20631;-85
2020/12/03 10:21:22;;;;;;;32.10;16.10;;;-3.40;77.80;;;;;;5067873;28;20032;-83
2020/12/03 10:24:15;;;;;;;35.17;16.30;;;-3.30;78.00;;;;;;5059546;28;20107;-85
2020/12/03 10:26:50;;;;;;;30.58;16.13;;;-3.20;77.90;;;;;;5075834;28;20013;-86
2020/12/03 10:29:31;;;;;;;30.00;14.52;;;-3.10;77.90;;;;;;5063180;28;20078;-87
2020/12/03 10:32:08;;;;;;;28.42;17.00;;;-3.10;77.70;;;;;;5084878;28;20024;-88
2020/12/03 10:34:39;;;;;;;34.80;15.70;;;-3.00;78.00;;;;;;5077290;28;20382;-87
2020/12/03 10:37:16;;;;;;;36.17;17.92;;;-2.90;77.90;;;;;;5075382;28;20036;-87
2020/12/03 10:40:09;;;;;;;27.63;15.32;;;-2.90;78.00;;;;;;5072839;28;20020;-83
2020/12/03 10:42:52;;;;;;;33.42;17.48;;;-2.90;78.10;;;;;;5072874;28;20442;-82
2020/12/03 10:45:25;;;;;;;28.48;14.20;;;-2.80;78.10;;;;;;5079320;28;20028;-86
2020/12/03 10:47:59;;;;;;;30.02;14.77;;;-2.80;78.10;;;;;;5078591;28;20020;-84
2020/12/03 10:50:47;;;;;;;28.38;14.80;;;-2.70;78.10;;;;;;5079418;28;20504;-82
2020/12/03 10:53:17;;;;;;;28.88;14.65;;;-2.60;77.50;;;;;;5082746;28;20104;-88
2020/12/03 10:55:44;;;;;;;26.23;14.25;;;-2.60;77.40;;;;;;5090448;28;20078;-86
2020/12/03 10:58:12;;;;;;;27.80;15.57;;;-2.60;77.50;;;;;;5079840;28;20467;-86
2020/12/03 11:00:40;;;;;;;26.50;14.32;;;-2.60;77.30;;;;;;5074554;28;20036;-87
2020/12/03 11:03:11;;;;;;;28.27;14.45;;;-2.60;77.30;;;;;;5078627;28;20481;-86
2020/12/03 11:05:43;;;;;;;26.88;15.02;;;-2.50;77.30;;;;;;5075899;28;20041;-86
2020/12/03 11:08:09;;;;;;;24.83;15.02;;;-2.50;77.20;;;;;;5078018;28;20017;-88
2020/12/03 11:10:36;;;;;;;23.02;14.07;;;-2.50;77.20;;;;;;5080160;28;20030;-83
2020/12/03 11:13:02;;;;;;;24.50;14.90;;;-2.60;77.00;;;;;;5072242;28;20032;-86
2020/12/03 11:15:29;;;;;;;29.27;15.70;;;-2.60;77.00;;;;;;5064072;28;20067;-86
2020/12/03 11:18:09;;;;;;;20.53;12.80;;;-2.50;76.90;;;;;;5066614;28;20035;-87
2020/12/03 11:20:38;;;;;;;23.00;14.00;;;-2.60;76.80;;;;;;5079991;28;20096;-88
2020/12/03 11:23:20;;;;;;;21.13;11.77;;;-2.70;76.70;;;;;;5026421;28;20040;-81
2020/12/03 11:25:48;;;;;;;23.35;13.13;;;-2.70;76.50;;;;;;5076383;28;20032;-83
2020/12/03 11:28:28;;;;;;;21.42;13.15;;;-2.70;76.60;;;;;;5080969;28;20146;-85
2020/12/03 11:31:03;;;;;;;31.67;17.27;;;-2.70;76.70;;;;;;5071187;28;20031;-86
2020/12/03 11:33:34;;;;;;;28.58;13.88;;;-2.70;76.10;;;;;;5056925;28;20029;-87
2020/12/03 11:36:15;;;;;;;29.40;15.50;;;-2.70;76.20;;;;;;5077198;28;20386;-88
2020/12/03 11:38:54;;;;;;;26.98;14.05;;;-2.60;76.20;;;;;;5078979;28;20023;-88
2020/12/03 11:41:34;;;;;;;31.98;17.00;;;-2.50;76.00;;;;;;5054029;28;20036;-87
2020/12/03 11:44:21;;;;;;;26.02;14.32;;;-2.40;75.90;;;;;;5067765;28;20021;-89
2020/12/03 11:49:30;;;;;;;42.60;18.98;;;-2.40;75.50;;;;;;5079481;28;20066;-84
2020/12/03 11:52:09;;;;;;;33.60;17.08;;;-2.40;75.20;;;;;;5057619;28;20036;-85
2020/12/03 11:54:34;;;;;;;30.75;15.60;;;-2.40;75.40;;;;;;5077252;28;20016;-86
2020/12/03 11:57:00;;;;;;;28.58;15.25;;;-2.60;75.30;;;;;;5075434;28;20370;-87
2020/12/03 11:59:32;;;;;;;35.33;18.73;;;-2.70;75.60;;;;;;5057929;28;20074;-86
2020/12/03 12:02:08;;;;;;;35.22;17.48;;;-2.70;76.00;;;;;;5077486;28;20044;-85
2020/12/03 12:04:53;;;;;;;35.65;17.55;;;-2.70;75.90;;;;;;5070183;28;20031;-84
2020/12/03 12:09:54;;;;;;;32.28;16.27;;;-2.60;76.10;;;;;;5070212;28;20082;-86
2020/12/03 12:12:23;;;;;;;26.60;14.68;;;-2.50;75.70;;;;;;5071372;28;20048;-85
2020/12/03 12:14:49;;;;;;;27.17;15.00;;;-2.50;75.40;;;;;;5076715;28;20020;-87
2020/12/03 12:17:17;;;;;;;24.15;14.25;;;-2.50;75.30;;;;;;5059920;28;20485;-85
2020/12/03 12:19:44;;;;;;;31.55;17.23;;;-2.50;75.10;;;;;;5060655;28;20110;-87
2020/12/03 12:22:13;;;;;;;29.50;15.50;;;-2.50;75.00;;;;;;5063979;28;20028;-89
2020/12/03 12:24:43;;;;;;;29.50;15.10;;;-2.50;75.00;;;;;;5073718;28;20028;-85
2020/12/03 12:27:09;;;;;;;24.17;13.82;;;-2.50;74.90;;;;;;5056063;28;20021;-88
2020/12/03 12:29:35;;;;;;;30.10;14.60;;;-2.50;74.70;;;;;;5080380;28;20024;-88
2020/12/03 12:32:02;;;;;;;27.98;16.20;;;-2.50;74.70;;;;;;5051280;28;20017;-87
2020/12/03 12:34:29;;;;;;;;;;;-2.60;74.40;;;;;;5067717;28;20382;-87
2020/12/03 12:36:55;;;;;;;31.13;15.03;;;-2.60;74.70;;;;;;5078051;28;19909;-84
2020/12/03 12:39:20;;;;;;;22.73;13.05;;;-2.60;74.60;;;;;;5067496;28;20037;-87
2020/12/03 12:42:16;;;;;;;32.40;15.57;;;-2.70;74.50;;;;;;5041568;28;20032;-86
2020/12/03 12:44:41;;;;;;;33.25;16.35;;;-2.60;74.60;;;;;;5062300;28;20420;-86
2020/12/03 12:47:07;;;;;;;22.10;13.07;;;-2.70;74.40;;;;;;5077046;28;20031;-87
2020/12/03 12:49:33;;;;;;;27.85;13.48;;;-2.80;74.10;;;;;;5092065;28;20013;-89
2020/12/03 12:51:59;;;;;;;25.35;13.00;;;-2.90;74.40;;;;;;5068879;28;20062;-87
2020/12/03 12:54:25;;;;;;;26.80;13.85;;;-2.90;74.60;;;;;;5057565;28;20141;-86
2020/12/03 12:56:53;;;;;;;25.20;14.77;;;-2.90;74.80;;;;;;5076500;28;20020;-87
2020/12/03 12:59:19;;;;;;;28.20;15.90;;;-2.90;74.90;;;;;;5076664;28;20016;-85
2020/12/03 13:01:47;;;;;;;126.32;37.00;;;-2.90;74.90;;;;;;5071919;28;20545;-86